Time;durP1;ratioP1;P1;durP2;ratioP2;P2;SDS_P1;SDS_P2;PMS_P1;PMS_P2;Temp;Humidity;BMP_temperature;BMP_pressure;BME280_temperature;BME280_humidity;BME280_pressure;Samples;Min_cycle;Max_cycle;Signal;HPM_P1;HPM_P2
2021/08/20 00:02:31;;;;;;;4.15;1.90;;;18.30;99.90;;;;;;10405488;28;20106;-68
2021/08/20 00:07:33;;;;;;;2.50;1.48;;;18.30;99.90;;;;;;10409185;28;20053;-68
2021/08/20 00:12:35;;;;;;;1.85;1.00;;;18.20;99.90;;;;;;10406439;28;20103;-68
2021/08/20 00:17:37;;;;;;;3.20;1.20;;;18.20;99.90;;;;;;10405516;28;20102;-65
2021/08/20 00:22:39;;;;;;;4.25;1.42;;;18.10;99.90;;;;;;10404924;28;20057;-67
2021/08/20 00:27:41;;;;;;;3.15;1.40;;;18.10;99.90;;;;;;10406173;28;20455;-67
2021/08/20 00:32:42;;;;;;;1.65;1.10;;;18.00;99.90;;;;;;10404121;28;20187;-67
2021/08/20 00:37:44;;;;;;;2.03;1.27;;;18.00;99.90;;;;;;10409320;28;20439;-68
2021/08/20 00:42:47;;;;;;;3.50;1.10;;;17.90;99.90;;;;;;10401323;28;20106;-67
2021/08/20 00:47:50;;;;;;;1.38;1.08;;;18.00;99.90;;;;;;10409243;28;20053;-68
2021/08/20 00:52:52;;;;;;;2.13;1.02;;;17.90;99.90;;;;;;10409300;28;20061;-68
2021/08/20 00:57:54;;;;;;;2.40;1.20;;;17.90;99.90;;;;;;10407707;28;20124;-68
2021/08/20 01:02:56;;;;;;;1.20;0.85;;;17.80;99.90;;;;;;10405931;28;20048;-68
2021/08/20 01:08:01;;;;;;;2.47;1.02;;;17.60;99.90;;;;;;10404972;28;20045;-68
2021/08/20 01:13:03;;;;;;;1.80;1.15;;;17.50;99.90;;;;;;10404937;28;20191;-68
2021/08/20 01:18:04;;;;;;;2.25;1.15;;;17.50;99.90;;;;;;10402776;28;20049;-68
2021/08/20 01:23:08;;;;;;;1.52;0.82;;;17.40;99.90;;;;;;10411829;28;20547;-68
2021/08/20 01:28:10;;;;;;;2.40;1.00;;;17.40;99.90;;;;;;10410076;28;20080;-68
2021/08/20 01:33:11;;;;;;;2.35;1.15;;;17.30;99.90;;;;;;10406465;28;20133;-69
2021/08/20 01:38:13;;;;;;;1.52;0.88;;;17.20;99.90;;;;;;10405489;28;20065;-69
2021/08/20 01:43:15;;;;;;;3.13;1.02;;;17.10;99.90;;;;;;10406356;28;20146;-68
2021/08/20 01:48:17;;;;;;;4.30;1.73;;;17.10;99.90;;;;;;10409647;28;20065;-69
2021/08/20 01:53:18;;;;;;;2.53;1.20;;;17.10;99.90;;;;;;10406018;28;20056;-68
2021/08/20 01:58:20;;;;;;;3.22;1.00;;;16.90;99.90;;;;;;10405150;28;20102;-68
2021/08/20 02:03:22;;;;;;;1.80;1.17;;;16.90;99.90;;;;;;10403926;28;20053;-69
2021/08/20 02:08:23;;;;;;;2.55;1.20;;;16.90;99.90;;;;;;10410149;28;20122;-68
2021/08/20 02:13:25;;;;;;;3.60;1.92;;;16.90;99.90;;;;;;10411411;28;20516;-69
2021/08/20 02:18:27;;;;;;;2.95;1.42;;;16.90;99.90;;;;;;10407065;28;20136;-69
2021/08/20 02:23:29;;;;;;;1.80;1.42;;;16.90;99.90;;;;;;10402993;28;20080;-69
2021/08/20 02:28:31;;;;;;;3.05;1.17;;;16.90;99.90;;;;;;10406925;28;20492;-69
2021/08/20 02:33:34;;;;;;;3.78;1.20;;;16.70;99.90;;;;;;10405085;28;20061;-69
2021/08/20 02:38:35;;;;;;;3.13;1.33;;;16.60;99.90;;;;;;10402590;28;20114;-69
2021/08/20 02:43:37;;;;;;;2.08;1.33;;;16.60;99.90;;;;;;10403685;28;20037;-69
2021/08/20 02:48:39;;;;;;;3.25;1.60;;;16.60;99.90;;;;;;10413972;28;20081;-69
2021/08/20 02:53:42;;;;;;;3.08;1.33;;;16.60;99.90;;;;;;10408717;28;20049;-68
2021/08/20 02:58:43;;;;;;;1.58;1.15;;;16.60;99.90;;;;;;10408603;28;20081;-68
2021/08/20 03:03:45;;;;;;;4.20;1.70;;;16.70;99.90;;;;;;10409953;28;20574;-68
2021/08/20 03:08:47;;;;;;;1.30;1.02;;;16.70;99.90;;;;;;10411890;28;20491;-68
2021/08/20 03:13:48;;;;;;;3.40;1.30;;;16.80;99.90;;;;;;10413753;28;20159;-68
2021/08/20 03:18:50;;;;;;;6.80;1.70;;;16.80;99.90;;;;;;10413369;28;20069;-66
2021/08/20 03:23:52;;;;;;;2.92;1.48;;;16.70;99.90;;;;;;10409546;28;20045;-67
2021/08/20 03:28:53;;;;;;;3.03;1.70;;;16.70;99.90;;;;;;10412434;28;20088;-68
2021/08/20 03:33:55;;;;;;;3.50;1.40;;;16.70;99.90;;;;;;10409068;28;20072;-67
2021/08/20 03:38:57;;;;;;;3.10;1.88;;;16.70;99.90;;;;;;10407563;28;20662;-68
2021/08/20 03:43:59;;;;;;;2.20;1.67;;;16.70;99.90;;;;;;10411085;28;20471;-67
2021/08/20 03:49:00;;;;;;;2.50;1.35;;;16.60;99.90;;;;;;10415262;28;20083;-69
2021/08/20 03:54:02;;;;;;;4.38;1.83;;;16.60;99.90;;;;;;10404909;28;20580;-69
2021/08/20 03:59:04;;;;;;;6.18;1.90;;;16.50;99.90;;;;;;10409840;28;20084;-69
2021/08/20 04:04:05;;;;;;;1.98;1.38;;;16.40;99.90;;;;;;10416057;28;20085;-68
2021/08/20 04:09:07;;;;;;;3.55;1.60;;;16.40;99.90;;;;;;10404779;28;20106;-68
2021/08/20 04:14:09;;;;;;;2.90;2.00;;;16.30;99.90;;;;;;10406549;28;20107;-68
2021/08/20 04:19:11;;;;;;;3.00;1.85;;;16.20;99.90;;;;;;10411871;28;20597;-68
2021/08/20 04:24:14;;;;;;;2.65;2.08;;;16.10;99.90;;;;;;10423589;28;20072;-70
2021/08/20 04:29:17;;;;;;;5.57;2.33;;;16.10;99.90;;;;;;10406408;28;20084;-70
2021/08/20 04:34:20;;;;;;;6.82;3.17;;;16.10;99.90;;;;;;10405239;28;20049;-68
2021/08/20 04:39:22;;;;;;;3.67;2.45;;;15.90;99.90;;;;;;10407462;28;20541;-69
2021/08/20 04:44:24;;;;;;;5.53;2.13;;;15.80;99.90;;;;;;10403371;28;20135;-69
2021/08/20 04:49:25;;;;;;;5.80;2.60;;;15.70;99.90;;;;;;10409408;28;20143;-69
2021/08/20 04:54:28;;;;;;;4.07;2.13;;;15.70;99.90;;;;;;10409134;28;20049;-69
2021/08/20 04:59:30;;;;;;;4.00;1.90;;;15.60;99.90;;;;;;10406762;28;20102;-70
2021/08/20 05:04:34;;;;;;;5.53;2.47;;;15.60;99.90;;;;;;10410363;28;20049;-68
2021/08/20 05:09:35;;;;;;;4.68;1.80;;;15.60;99.90;;;;;;10404616;28;20061;-69
2021/08/20 05:14:37;;;;;;;7.60;2.50;;;15.70;99.90;;;;;;10405928;28;20048;-69
2021/08/20 05:19:39;;;;;;;5.38;4.20;;;15.80;99.90;;;;;;10405737;28;20073;-70
2021/08/20 05:24:40;;;;;;;5.75;2.40;;;15.90;99.90;;;;;;10403499;28;20457;-70
2021/08/20 05:29:42;;;;;;;5.80;1.92;;;16.10;99.90;;;;;;10408766;28;20138;-70
2021/08/20 05:34:45;;;;;;;5.18;2.38;;;16.20;99.90;;;;;;10407667;28;20434;-69
2021/08/20 05:39:46;;;;;;;6.18;2.03;;;16.20;99.90;;;;;;10405743;28;20083;-69
2021/08/20 05:44:48;;;;;;;5.38;2.25;;;16.10;99.90;;;;;;10405504;28;20472;-68
2021/08/20 05:49:50;;;;;;;4.85;2.17;;;16.20;99.90;;;;;;10403050;28;20139;-70
2021/08/20 05:54:52;;;;;;;3.95;1.88;;;16.30;99.90;;;;;;10400931;28;20084;-70
2021/08/20 05:59:54;;;;;;;4.65;2.83;;;16.60;99.90;;;;;;10403213;28;20424;-70
2021/08/20 06:04:57;;;;;;;5.13;2.28;;;16.70;99.90;;;;;;10402190;28;20049;-70
2021/08/20 06:09:59;;;;;;;3.38;1.77;;;16.80;99.90;;;;;;10406225;28;20068;-70
2021/08/20 06:15:01;;;;;;;6.07;2.53;;;16.90;99.90;;;;;;10417700;28;20768;-70
2021/08/20 06:20:04;;;;;;;4.47;2.10;;;17.00;99.90;;;;;;10402483;28;20069;-70
2021/08/20 06:25:06;;;;;;;5.75;1.73;;;17.20;99.90;;;;;;10403797;28;20083;-70
2021/08/20 06:30:08;;;;;;;4.05;2.35;;;17.40;99.90;;;;;;10406080;28;20045;-70
2021/08/20 06:35:10;;;;;;;6.03;2.10;;;17.60;99.90;;;;;;10418300;28;20138;-70
2021/08/20 06:40:12;;;;;;;3.42;1.63;;;17.80;99.90;;;;;;10405643;28;20377;-70
2021/08/20 06:45:14;;;;;;;4.13;1.58;;;18.00;99.90;;;;;;10405186;28;20102;-69
2021/08/20 06:50:16;;;;;;;3.72;1.83;;;18.30;99.90;;;;;;10406025;28;20073;-70
2021/08/20 06:55:17;;;;;;;6.30;1.98;;;18.30;99.90;;;;;;10399654;28;20057;-70
2021/08/20 07:00:19;;;;;;;3.60;1.65;;;18.20;99.90;;;;;;10399533;28;20053;-70
2021/08/20 07:05:21;;;;;;;4.63;1.95;;;18.20;99.90;;;;;;10402535;28;20041;-70
2021/08/20 07:10:23;;;;;;;3.47;1.85;;;18.40;99.90;;;;;;10401635;28;20424;-70
2021/08/20 07:15:24;;;;;;;4.10;1.75;;;18.50;99.90;;;;;;10406268;28;20068;-70
2021/08/20 07:20:26;;;;;;;4.88;1.80;;;18.50;99.90;;;;;;10406364;28;20081;-70
2021/08/20 07:25:28;;;;;;;2.65;1.08;;;18.90;99.90;;;;;;10401024;28;20049;-70
2021/08/20 07:30:29;;;;;;;2.78;1.00;;;19.50;99.90;;;;;;10402960;28;20090;-71
2021/08/20 07:35:31;;;;;;;2.38;1.00;;;19.70;99.90;;;;;;10404656;28;20037;-71
2021/08/20 07:40:33;;;;;;;4.65;1.48;;;20.00;99.90;;;;;;10410712;28;20098;-71
2021/08/20 07:45:34;;;;;;;3.13;1.38;;;19.70;99.90;;;;;;10436277;28;20846;-69
2021/08/20 07:50:36;;;;;;;4.70;0.98;;;19.80;99.90;;;;;;10408659;28;20059;-69
2021/08/20 07:55:38;;;;;;;3.08;1.15;;;20.20;99.90;;;;;;10409405;28;20056;-69
2021/08/20 08:00:40;;;;;;;4.63;1.25;;;20.50;99.90;;;;;;10411578;28;20636;-68
2021/08/20 08:05:42;;;;;;;1.70;1.10;;;19.80;99.90;;;;;;10411997;28;20388;-70
2021/08/20 08:10:44;;;;;;;3.50;1.08;;;19.90;99.90;;;;;;10404001;28;20052;-69
2021/08/20 08:15:45;;;;;;;1.35;0.80;;;19.70;99.90;;;;;;10417723;28;20055;-71
2021/08/20 08:20:47;;;;;;;2.10;0.77;;;19.50;99.90;;;;;;10410371;28;20118;-70
2021/08/20 08:25:49;;;;;;;2.75;0.70;;;19.80;99.90;;;;;;10408528;28;20041;-70
2021/08/20 08:30:51;;;;;;;2.00;0.95;;;19.90;99.90;;;;;;10398040;28;20510;-72
2021/08/20 08:35:52;;;;;;;2.13;0.80;;;20.00;99.90;;;;;;10412498;28;20139;-70
2021/08/20 08:40:54;;;;;;;1.65;0.65;;;20.50;99.90;;;;;;10412095;28;20527;-72
2021/08/20 08:46:00;;;;;;;1.10;0.80;;;20.80;99.90;;;;;;10408782;28;20049;-69
2021/08/20 08:51:02;;;;;;;2.55;0.70;;;20.30;99.90;;;;;;10423795;28;20446;-71
2021/08/20 08:56:04;;;;;;;1.80;0.82;;;20.30;99.90;;;;;;10412447;28;20057;-71
2021/08/20 09:01:32;;;;;;;2.75;0.73;;;20.50;99.80;;;;;;10409050;28;20056;-70
2021/08/20 09:06:43;;;;;;;3.05;0.80;;;20.30;99.30;;;;;;10408472;28;20065;-71
2021/08/20 09:11:50;;;;;;;1.55;1.05;;;20.30;99.80;;;;;;10405184;28;20045;-70
2021/08/20 09:16:54;;;;;;;2.90;0.70;;;20.30;98.80;;;;;;10411487;28;20049;-71
2021/08/20 09:22:07;;;;;;;1.95;0.80;;;20.30;99.50;;;;;;10403459;28;20054;-71
2021/08/20 09:27:15;;;;;;;4.43;0.90;;;20.60;98.30;;;;;;10404040;28;20061;-70
2021/08/20 09:32:16;;;;;;;1.25;0.77;;;20.60;98.10;;;;;;10404809;28;20537;-71
2021/08/20 09:37:20;;;;;;;3.17;0.88;;;20.40;97.80;;;;;;10403211;28;20130;-71
2021/08/20 09:42:22;;;;;;;1.60;0.70;;;20.50;97.10;;;;;;10407534;28;20061;-73
2021/08/20 09:47:25;;;;;;;5.00;1.00;;;20.60;97.50;;;;;;10407307;28;20060;-71
2021/08/20 09:52:28;;;;;;;4.30;0.70;;;21.10;95.70;;;;;;10403900;28;20045;-70
2021/08/20 09:57:32;;;;;;;5.22;0.75;;;21.50;95.80;;;;;;10406059;28;20068;-71
2021/08/20 10:02:36;;;;;;;1.10;0.68;;;21.80;94.60;;;;;;10401646;28;20095;-70
2021/08/20 10:07:39;;;;;;;4.15;0.73;;;22.10;93.80;;;;;;10394361;28;20053;-70
2021/08/20 10:12:42;;;;;;;2.58;0.55;;;22.20;93.10;;;;;;10405282;28;20118;-70
2021/08/20 10:17:44;;;;;;;1.10;0.77;;;22.50;92.30;;;;;;10400717;28;20049;-71
2021/08/20 10:22:47;;;;;;;3.38;0.95;;;22.90;92.10;;;;;;10409603;28;20384;-69
2021/08/20 10:27:52;;;;;;;2.15;0.88;;;22.90;91.60;;;;;;10399256;28;20150;-69
2021/08/20 10:33:05;;;;;;;;;;;23.10;90.00;;;;;;10407651;28;20050;-69
2021/08/20 10:38:28;;;;;;;1.17;0.75;;;22.90;90.30;;;;;;10399885;28;19971;-67
2021/08/20 10:43:50;;;;;;;2.05;0.98;;;23.20;88.40;;;;;;10405228;28;20041;-68
2021/08/20 10:49:11;;;;;;;3.80;1.23;;;23.30;87.10;;;;;;10400026;28;20564;-67
2021/08/20 10:54:12;;;;;;;1.75;0.50;;;23.40;86.00;;;;;;10398979;28;20125;-66
2021/08/20 10:59:43;;;;;;;1.45;0.70;;;23.20;85.20;;;;;;10400167;28;20139;-68
2021/08/20 11:05:01;;;;;;;2.05;0.70;;;23.10;86.30;;;;;;10394636;28;20088;-68
2021/08/20 11:10:26;;;;;;;1.15;0.70;;;23.20;84.70;;;;;;10412712;28;20061;-67
2021/08/20 11:15:30;;;;;;;1.25;0.60;;;23.40;83.80;;;;;;10406322;28;20052;-68
2021/08/20 11:20:38;;;;;;;1.13;0.60;;;23.50;85.60;;;;;;10413065;28;20508;-68
2021/08/20 11:25:51;;;;;;;1.90;0.80;;;22.50;86.40;;;;;;10412857;28;20503;-70
2021/08/20 11:31:03;;;;;;;2.92;0.90;;;22.10;88.20;;;;;;10410053;28;20041;-69
2021/08/20 11:36:12;;;;;;;3.00;0.70;;;22.60;87.00;;;;;;10410871;28;20060;-69
2021/08/20 11:41:40;;;;;;;4.38;0.80;;;23.10;88.20;;;;;;10409003;28;20049;-68
2021/08/20 11:46:50;;;;;;;1.92;0.60;;;24.00;83.50;;;;;;10411901;28;20111;-69
2021/08/20 11:51:52;;;;;;;6.70;0.60;;;25.00;82.80;;;;;;10410055;28;20041;-71
2021/08/20 11:56:55;;;;;;;0.90;0.70;;;25.60;79.80;;;;;;10406515;28;20051;-68
2021/08/20 12:02:01;;;;;;;0.93;0.60;;;25.80;78.10;;;;;;10422041;28;20453;-68
2021/08/20 12:07:06;;;;;;;1.38;0.77;;;24.60;77.20;;;;;;10406810;28;20057;-65
2021/08/20 12:12:11;;;;;;;0.93;0.50;;;26.10;76.00;;;;;;10411593;28;20049;-65
2021/08/20 12:17:31;;;;;;;0.60;0.40;;;25.40;72.70;;;;;;10409127;28;20072;-66
2021/08/20 12:22:39;;;;;;;0.50;0.40;;;24.70;74.70;;;;;;10408833;28;20057;-66
2021/08/20 12:27:42;;;;;;;0.98;0.60;;;24.80;76.00;;;;;;10406968;28;20060;-66
2021/08/20 12:32:58;;;;;;;3.25;0.80;;;24.20;76.80;;;;;;10409007;28;20061;-66
2021/08/20 12:38:20;;;;;;;0.90;0.50;;;24.40;76.60;;;;;;10403517;28;20626;-66
2021/08/20 12:43:26;;;;;;;1.48;0.50;;;24.60;74.20;;;;;;10408669;28;20045;-66
2021/08/20 12:48:27;;;;;;;0.80;0.80;;;25.10;76.70;;;;;;10411048;28;20036;-66
2021/08/20 12:53:39;;;;;;;1.20;0.50;;;24.90;74.70;;;;;;10408836;28;20106;-66
2021/08/20 12:58:40;;;;;;;0.93;0.40;;;24.40;76.20;;;;;;10409046;28;20072;-66
2021/08/20 13:03:42;;;;;;;1.15;0.47;;;24.30;76.20;;;;;;10401408;28;20068;-65
2021/08/20 13:08:44;;;;;;;3.38;0.43;;;23.80;77.40;;;;;;10400152;28;20068;-65
2021/08/20 13:13:46;;;;;;;0.88;0.50;;;23.80;77.60;;;;;;10410139;28;20102;-65
2021/08/20 13:18:47;;;;;;;1.63;0.30;;;23.80;77.10;;;;;;10404947;28;20091;-66
2021/08/20 13:23:49;;;;;;;1.27;0.43;;;24.60;76.20;;;;;;10404739;28;20108;-66
2021/08/20 13:28:51;;;;;;;1.17;0.40;;;24.90;74.90;;;;;;10405957;28;20487;-66
2021/08/20 13:33:52;;;;;;;0.80;0.40;;;25.20;73.90;;;;;;10401944;28;20061;-66
2021/08/20 13:38:54;;;;;;;0.85;0.57;;;25.40;76.50;;;;;;10407463;28;20099;-66
2021/08/20 13:43:56;;;;;;;3.70;0.45;;;26.00;72.80;;;;;;10406370;28;20053;-66
2021/08/20 13:48:58;;;;;;;1.20;0.40;;;25.90;71.30;;;;;;10408218;28;20513;-67
2021/08/20 13:54:00;;;;;;;0.98;0.30;;;26.50;70.50;;;;;;10404793;28;20392;-65
2021/08/20 13:59:02;;;;;;;1.95;0.30;;;26.20;69.90;;;;;;10405881;28;20111;-66
2021/08/20 14:04:04;;;;;;;2.15;0.40;;;25.80;70.80;;;;;;10403567;28;20106;-65
2021/08/20 14:09:06;;;;;;;0.65;0.32;;;25.10;70.70;;;;;;10407340;28;20114;-66
2021/08/20 14:14:08;;;;;;;0.68;0.38;;;26.30;69.80;;;;;;10404687;28;20049;-66
2021/08/20 14:19:10;;;;;;;0.40;0.22;;;25.70;69.80;;;;;;10403859;28;20130;-66
2021/08/20 14:24:12;;;;;;;0.47;0.30;;;25.80;69.70;;;;;;10403540;28;20142;-66
2021/08/20 14:29:13;;;;;;;1.58;0.30;;;26.90;66.60;;;;;;10402150;28;20088;-66
2021/08/20 14:34:15;;;;;;;0.57;0.32;;;27.70;65.50;;;;;;10402539;28;20119;-66
2021/08/20 14:39:17;;;;;;;1.75;0.30;;;28.80;64.70;;;;;;10409693;28;20087;-66
2021/08/20 14:44:18;;;;;;;1.75;0.30;;;29.00;63.10;;;;;;10410728;28;20053;-66
2021/08/20 14:49:20;;;;;;;0.82;0.40;;;28.90;63.10;;;;;;10410997;28;20069;-64
2021/08/20 14:54:22;;;;;;;0.47;0.40;;;27.60;65.00;;;;;;10410906;28;20103;-67
2021/08/20 14:59:27;;;;;;;0.57;0.43;;;27.50;65.70;;;;;;10415675;28;20057;-66
2021/08/20 15:04:29;;;;;;;0.40;0.30;;;27.60;65.50;;;;;;10408823;28;20160;-67
2021/08/20 15:09:31;;;;;;;0.60;0.30;;;27.20;66.20;;;;;;10388351;28;20459;-67
2021/08/20 15:14:33;;;;;;;3.75;0.50;;;27.00;67.50;;;;;;10408401;28;20053;-66
2021/08/20 15:19:38;;;;;;;0.95;0.35;;;26.70;68.60;;;;;;10410467;28;20040;-67
2021/08/20 15:24:42;;;;;;;1.02;0.30;;;26.40;68.30;;;;;;10417049;28;20052;-66
2021/08/20 15:29:43;;;;;;;1.00;0.30;;;26.00;69.30;;;;;;10408717;28;20122;-66
2021/08/20 15:34:45;;;;;;;0.35;0.30;;;25.80;69.60;;;;;;10406777;28;20770;-66
2021/08/20 15:39:47;;;;;;;1.15;0.47;;;25.50;71.50;;;;;;10413103;28;20067;-66
2021/08/20 15:44:49;;;;;;;0.73;0.40;;;25.30;71.80;;;;;;10412494;28;20098;-66
2021/08/20 15:49:55;;;;;;;1.85;0.30;;;25.30;71.90;;;;;;10404313;28;21533;-65
2021/08/20 15:54:57;;;;;;;0.30;0.25;;;25.00;71.90;;;;;;10411003;28;20134;-65
2021/08/20 15:59:58;;;;;;;2.05;0.30;;;24.80;72.80;;;;;;10414919;28;20068;-67
2021/08/20 16:05:03;;;;;;;1.25;0.40;;;24.70;72.70;;;;;;10410486;28;20052;-66
2021/08/20 16:10:06;;;;;;;;;;;24.80;73.40;;;;;;10404836;28;20582;-67
2021/08/20 16:15:09;;;;;;;0.30;0.20;;;24.80;73.40;;;;;;10405243;28;20591;-69
2021/08/20 16:20:12;;;;;;;2.35;0.30;;;24.90;73.20;;;;;;10404212;28;20054;-67
2021/08/20 16:25:15;;;;;;;0.38;0.30;;;25.50;71.30;;;;;;10404363;28;20088;-67
2021/08/20 16:30:17;;;;;;;1.70;0.30;;;25.90;70.90;;;;;;10407910;28;20045;-67
2021/08/20 16:35:19;;;;;;;1.02;0.40;;;25.80;70.30;;;;;;10405411;28;20095;-67
2021/08/20 16:40:21;;;;;;;1.08;0.40;;;25.70;69.80;;;;;;10414214;28;20081;-67
2021/08/20 16:45:23;;;;;;;3.42;0.50;;;25.40;71.40;;;;;;10409892;28;20072;-67
2021/08/20 16:50:25;;;;;;;0.55;0.40;;;25.10;73.50;;;;;;10410012;28;20114;-67
2021/08/20 16:55:27;;;;;;;1.13;0.40;;;24.80;73.90;;;;;;10409531;28;20052;-68
2021/08/20 17:00:28;;;;;;;2.78;0.35;;;24.60;74.40;;;;;;10404042;28;20110;-67
2021/08/20 17:05:30;;;;;;;1.17;0.50;;;24.60;75.00;;;;;;10407211;28;20111;-66
2021/08/20 17:10:32;;;;;;;10.02;0.50;;;24.60;75.90;;;;;;10411281;28;20072;-67
2021/08/20 17:15:33;;;;;;;0.90;0.50;;;24.50;76.40;;;;;;10405302;28;20116;-67
2021/08/20 17:20:35;;;;;;;0.95;0.43;;;24.00;78.70;;;;;;10406566;28;20041;-66
2021/08/20 17:25:39;;;;;;;2.08;0.80;;;23.80;80.80;;;;;;10404801;28;20533;-67
2021/08/20 17:30:41;;;;;;;1.00;0.60;;;23.80;81.50;;;;;;10403883;28;20506;-67
2021/08/20 17:35:42;;;;;;;0.80;0.40;;;23.60;82.60;;;;;;10405837;28;20119;-67
2021/08/20 17:40:44;;;;;;;0.70;0.32;;;23.40;83.30;;;;;;10406216;28;20073;-67
2021/08/20 17:45:46;;;;;;;1.40;0.40;;;23.20;84.30;;;;;;10401463;28;20057;-67
2021/08/20 17:50:48;;;;;;;1.30;0.55;;;23.00;85.10;;;;;;10404198;28;20045;-68
2021/08/20 17:55:50;;;;;;;1.13;0.40;;;22.70;86.30;;;;;;10406740;28;20578;-67
2021/08/20 18:00:51;;;;;;;3.88;0.50;;;22.50;86.50;;;;;;10403081;28;20115;-67
2021/08/20 18:05:53;;;;;;;1.65;0.30;;;22.50;87.60;;;;;;10401329;28;20156;-67
2021/08/20 18:10:55;;;;;;;1.08;0.32;;;22.30;88.40;;;;;;10404945;28;20123;-66
2021/08/20 18:15:57;;;;;;;2.67;0.47;;;22.20;89.40;;;;;;10404363;28;20088;-67
2021/08/20 18:20:58;;;;;;;0.90;0.50;;;22.00;90.00;;;;;;10403901;28;20104;-66
2021/08/20 18:26:00;;;;;;;0.95;0.40;;;21.80;90.30;;;;;;10409619;28;20107;-67
2021/08/20 18:31:02;;;;;;;1.15;0.70;;;21.60;91.10;;;;;;10395912;28;20076;-67
2021/08/20 18:36:04;;;;;;;2.00;0.60;;;21.40;91.50;;;;;;10404786;28;20060;-66
2021/08/20 18:41:07;;;;;;;0.82;0.40;;;21.20;92.40;;;;;;10410488;28;20123;-67
2021/08/20 18:46:09;;;;;;;2.40;0.50;;;21.20;92.80;;;;;;10406884;28;20081;-67
2021/08/20 18:51:10;;;;;;;1.08;0.40;;;21.00;93.40;;;;;;10388129;28;20499;-67
2021/08/20 18:56:12;;;;;;;2.45;0.50;;;20.80;94.00;;;;;;10400350;28;20065;-67
2021/08/20 19:01:14;;;;;;;0.95;0.45;;;20.60;94.70;;;;;;10401664;28;20057;-67
2021/08/20 19:06:16;;;;;;;0.93;0.60;;;20.50;95.60;;;;;;10397457;28;20491;-67
2021/08/20 19:11:18;;;;;;;0.55;0.30;;;20.30;96.60;;;;;;10405391;28;20068;-67
2021/08/20 19:16:19;;;;;;;2.95;0.35;;;20.10;97.50;;;;;;10399236;28;20069;-66
2021/08/20 19:21:21;;;;;;;1.48;0.47;;;20.00;98.40;;;;;;10402650;28;20424;-67
2021/08/20 19:26:23;;;;;;;0.50;0.35;;;19.80;99.40;;;;;;10395323;28;20061;-67
2021/08/20 19:31:25;;;;;;;1.42;0.35;;;19.80;99.90;;;;;;10404595;28;20118;-66
2021/08/20 19:36:31;;;;;;;0.73;0.30;;;19.50;99.90;;;;;;10407019;28;20593;-68
2021/08/20 19:41:33;;;;;;;0.45;0.40;;;19.30;99.90;;;;;;10410478;28;20057;-67
2021/08/20 19:46:35;;;;;;;1.33;0.50;;;19.20;99.90;;;;;;10411104;28;20053;-67
2021/08/20 19:51:37;;;;;;;4.47;0.40;;;19.10;99.90;;;;;;10406478;28;20049;-67
2021/08/20 19:56:39;;;;;;;0.57;0.40;;;19.00;99.90;;;;;;10407451;28;20108;-66
2021/08/20 20:01:41;;;;;;;2.75;0.68;;;18.90;99.90;;;;;;10405360;28;20057;-67
2021/08/20 20:06:43;;;;;;;2.78;0.80;;;18.80;99.90;;;;;;10411041;28;20089;-67
2021/08/20 20:11:44;;;;;;;5.75;1.10;;;18.60;99.90;;;;;;10405163;28;20049;-67
2021/08/20 20:16:47;;;;;;;1.88;1.02;;;18.40;99.90;;;;;;10405083;28;20065;-67
2021/08/20 20:21:49;;;;;;;4.18;2.35;;;18.40;99.90;;;;;;10399106;28;20050;-66
2021/08/20 20:26:53;;;;;;;6.15;3.72;;;18.40;99.90;;;;;;10407860;28;20049;-66
2021/08/20 20:31:54;;;;;;;6.85;3.58;;;18.30;99.90;;;;;;10411560;28;20191;-67
2021/08/20 20:36:56;;;;;;;6.65;2.92;;;18.20;99.90;;;;;;10409771;28;20049;-67
2021/08/20 20:42:01;;;;;;;7.05;3.70;;;18.10;99.90;;;;;;10408241;28;20045;-67
2021/08/20 20:47:03;;;;;;;4.30;3.03;;;18.10;99.90;;;;;;10403434;28;20060;-68
2021/08/20 20:52:05;;;;;;;5.00;3.58;;;18.10;99.90;;;;;;10403775;28;20072;-67
2021/08/20 20:57:09;;;;;;;19.20;10.02;;;17.90;99.90;;;;;;10404891;28;20438;-67
2021/08/20 21:02:14;;;;;;;12.30;5.03;;;17.80;99.90;;;;;;10400871;28;20041;-67
2021/08/20 21:07:15;;;;;;;5.45;2.00;;;17.80;99.90;;;;;;10401823;28;20049;-67
2021/08/20 21:12:17;;;;;;;2.28;0.80;;;17.70;99.90;;;;;;10410915;28;20056;-67
2021/08/20 21:17:22;;;;;;;1.58;0.95;;;17.70;99.90;;;;;;10408666;28;23011;-67
2021/08/20 21:22:23;;;;;;;2.25;1.45;;;17.60;99.90;;;;;;10415044;28;20085;-67
2021/08/20 21:27:25;;;;;;;3.53;1.33;;;17.50;99.90;;;;;;10408728;28;20083;-67
2021/08/20 21:32:27;;;;;;;4.78;0.80;;;17.40;99.90;;;;;;10422772;28;20111;-65
2021/08/20 21:37:29;;;;;;;4.80;0.70;;;17.20;99.90;;;;;;10407465;28;20111;-66
2021/08/20 21:42:31;;;;;;;1.65;0.98;;;17.20;99.90;;;;;;10406199;28;20087;-66
2021/08/20 21:47:34;;;;;;;2.78;1.00;;;17.10;99.90;;;;;;10404368;28;20049;-67
2021/08/20 21:52:35;;;;;;;2.42;1.23;;;17.00;99.90;;;;;;10397562;28;20053;-67
2021/08/20 21:57:37;;;;;;;3.58;0.80;;;17.00;99.90;;;;;;10410632;28;20081;-67
2021/08/20 22:02:46;;;;;;;2.70;1.10;;;16.90;99.90;;;;;;10403971;28;20088;-64
2021/08/20 22:07:52;;;;;;;4.78;1.13;;;16.80;99.90;;;;;;10400327;28;20534;-63
2021/08/20 22:12:58;;;;;;;8.80;2.78;;;16.80;99.90;;;;;;10403074;28;20033;-64
2021/08/20 22:18:00;;;;;;;12.68;4.95;;;16.70;99.90;;;;;;10401479;28;20045;-65
2021/08/20 22:23:02;;;;;;;11.45;4.47;;;16.60;99.90;;;;;;10396407;28;20104;-63
2021/08/20 22:28:04;;;;;;;6.45;3.65;;;16.50;99.90;;;;;;10406004;28;20115;-63
2021/08/20 22:33:06;;;;;;;7.15;2.53;;;16.50;99.90;;;;;;10407941;28;20111;-62
2021/08/20 22:38:08;;;;;;;6.50;3.35;;;16.40;99.90;;;;;;10402610;28;20080;-63
2021/08/20 22:43:10;;;;;;;4.38;1.88;;;16.30;99.90;;;;;;10409155;28;20103;-63
2021/08/20 22:48:11;;;;;;;5.03;2.08;;;16.30;99.90;;;;;;10397109;28;20050;-62
2021/08/20 22:53:13;;;;;;;3.15;1.38;;;16.10;99.90;;;;;;10402522;28;20388;-64
2021/08/20 22:58:16;;;;;;;3.20;1.17;;;16.00;99.90;;;;;;10403407;28;20139;-63
2021/08/20 23:03:17;;;;;;;4.45;1.38;;;16.00;99.90;;;;;;10404412;28;20053;-63
2021/08/20 23:08:19;;;;;;;2.72;1.25;;;16.00;99.90;;;;;;10408962;28;20564;-63
2021/08/20 23:13:21;;;;;;;2.85;1.40;;;15.90;99.90;;;;;;10409410;28;20053;-63
2021/08/20 23:18:22;;;;;;;3.58;1.42;;;15.90;99.90;;;;;;10409349;28;20115;-63
2021/08/20 23:23:26;;;;;;;2.80;1.20;;;15.80;99.90;;;;;;10413508;28;20056;-63
2021/08/20 23:28:27;;;;;;;4.00;1.40;;;15.70;99.90;;;;;;10411736;28;20075;-62
2021/08/20 23:33:29;;;;;;;3.35;1.50;;;15.60;99.90;;;;;;10409623;28;20045;-63
2021/08/20 23:38:32;;;;;;;4.13;1.15;;;15.60;99.90;;;;;;10414078;28;20106;-63
2021/08/20 23:43:34;;;;;;;2.05;1.00;;;15.50;99.90;;;;;;10413479;28;20490;-63
2021/08/20 23:48:35;;;;;;;2.35;1.00;;;15.50;99.90;;;;;;10410853;28;20102;-64
2021/08/20 23:53:37;;;;;;;1.95;1.00;;;15.50;99.90;;;;;;10411166;28;20095;-63
2021/08/20 23:58:39;;;;;;;2.90;1.02;;;15.40;99.90;;;;;;10414472;28;20056;-64
